Terminal Aerodrome Forecast
Issued by NWS

Home | Current Version | Previous Version | Text Only | Print | Product List | Glossary On
Versions: 1 2 3 4 5 6 7 8 9 10 11 12 13 14 15 16 17 18 19 20 21 22 23 24 25
000
FTUS43 KLOT 291139
TAFGYY
TAF
KGYY 291139Z 2912/3012 07005KT P6SM FEW015 BKN035
     FM291600 04009KT 6SM -SHRA VCTS BKN035CB
      TEMPO 2917/2920 4SM -SHRA OVC030
     FM292000 04010KT P6SM VCSH BKN040
     FM300200 05006KT 6SM BR FEW010 BKN045=

USA.gov is the U.S. government's official web portal to all federal, state and local government web resources and services.